sim
Sign-in with your pilot id or email,
or register
Callsign
Passwort

Schedule Details

Flight Number: OEC98922
Departure: Cognac-Ch√Ęteaubernard (BA 709) Air Base (LFBG) at 00:00 UTC
Arrival: Munich Airport (EDDM) at 01:29 UTC
Route: DCT CNA UN460 LMG UN857 BEBIX UM129 KUKOR/N0409F220 UM129 RESPO UM187 POGOL/N0446F370 UM164 LUPEN T107 GESLU GESL1A

Weather Information
Getting current METAR information for LFBG 191500Z AUTO 24012KT 210V270 CAVOK 27/12 Q1010
Getting current METAR information for EDDM 191520Z 04004KT 350V080 CAVOK 21/12 Q1017 NOSIG

Schedule Frequency

Route Map